Pagina principale
METAR-TAF:

METAR-TAF

Aeroporti :

Cuneo, Italia

Aeroporto di Cuneo-Levaldigi

latitudine: 44-32-47N, longitudine: 007-37-20E, altezza: 386 m

Osservazione

Il bollettino è stato emesso 1 ora e 22 minuti fa, alle 06:50 UTC
Vento 2 kt da direzioni variabili
Temperature 22°C
Umidità 60%
Pressione 1021 hPa
Visibilità: 8000 m
Poco nuvoloso ad un'altezza di 4500 ft

METAR: LIMZ 270650Z VRB02KT 8000 FEW045 22/14 Q1021

Ora: 10:12 (08:12 UTC)

Previsione

Il bollettino è stato emesso 3 ore e 12 minuti fa, alle 05:00 UTC
Previsione valida dal 27 alle 06 UTC al 28 alle 06 UTC
Vento 6 kt da nord-est
Visibilità 10 km o più
Nubi sparse ad un'altezza di 4000 ft

TAF: LIMZ 270500Z 2706/2806 04006KT 9999 SCT040

Osservazioni e previsioni meteorologiche di più di 4000 aeroporti (messaggi METAR e TAF).

Le stazioni disponibili sono rappresentate dai dischi gialli e rossi sulla carta.

Puntare il mouse per vedere il nome della stazione.

Clicca sopra per visualizzare le osservazioni e previsioni meteorologiche.

Per cambiare la mappa : fare clic sui pulsanti verdi con una croce nera per ingrandire, il pulsante verde con un trattino per diminuire, o sulla freccia verde per le mappe adiacenti.


METAR-TAF: